メインページ
METAR-TAF:

METAR-TAF

空港 :

種子島空港

種子島, 日本

緯度: 30-33N, 経度: 130-57E, 海抜: 92m

現時点の気象観測

当レポートは9分前の07:13(UTC)に作成
北東の風 7kt、最大17ktの突風を伴う、北/北西から東/南東の間で変化する
気温 24°C
湿度 100%
気圧 1005 hPa
視程: 6000m
高度200ftの雲はほとんどない
高度400ftの雲は散在している
高度600ftの千切れ雲あり

METAR: RJFG 200713Z 05007G17KT 340V120 6000 FEW002 SCT004 BKN006 24/24 Q1005 RMK 1ST002 3ST004 5ST006 A2969

時間: 16:22 (07:22 UTC)


TAF: 見つかりません

4,000以上の空港の気象観測と天気予報(METAR報とTAF報)

利用可能な観測所は地図上に黄色い丸と赤い丸で示す。

丸の上にカーソルを重ねると観測所名を参照できる。

次にクリックすると気象観測と天気予報を参照できる。

マップの切り替え:黒色「×」印の緑ボタンをクリックして拡大、「-」印の緑ボタンをクリックして縮小、緑色の三角印をクリックして隣りの地図に切り替え


METAR-TAF: